Time;durP1;ratioP1;P1;durP2;ratioP2;P2;SDS_P1;SDS_P2;PMS_P1;PMS_P2;Temp;Humidity;BMP_temperature;BMP_pressure;BME280_temperature;BME280_humidity;BME280_pressure;Samples;Min_cycle;Max_cycle;Signal;HPM_P1;HPM_P2
2022/03/24 00:01:36;;;;;;;37.65;26.27;;;;;;;17.96;38.55;102832.78;5031742;28;20029;-71
2022/03/24 00:04:02;;;;;;;26.33;18.63;;;;;;;17.95;38.67;102840.25;5015166;28;20491;-71
2022/03/24 00:06:28;;;;;;;277.90;157.43;;;;;;;18.01;38.63;102835.44;5013744;28;20025;-71
2022/03/24 00:08:53;;;;;;;41.80;28.05;;;;;;;17.96;38.39;102832.78;5015181;28;20484;-74
2022/03/24 00:11:20;;;;;;;70.40;44.15;;;;;;;17.93;38.71;102830.66;5032608;28;20510;-71
2022/03/24 00:13:48;;;;;;;26.88;19.05;;;;;;;17.95;38.35;102831.16;5032947;28;20031;-71
2022/03/24 00:16:15;;;;;;;25.17;18.08;;;;;;;17.88;38.71;102830.75;5033038;28;20056;-71
2022/03/24 00:18:41;;;;;;;22.10;19.73;;;;;;;17.88;38.75;102828.00;5032886;28;20065;-71
2022/03/24 00:21:08;;;;;;;27.42;20.02;;;;;;;17.90;38.62;102836.78;5032645;28;20406;-71
2022/03/24 00:23:34;;;;;;;23.88;17.58;;;;;;;17.91;38.57;102830.13;5032819;28;20032;-71
2022/03/24 00:26:00;;;;;;;34.33;24.33;;;;;;;17.92;38.71;102834.53;5033088;28;20026;-71
2022/03/24 00:28:26;;;;;;;25.88;17.38;;;;;;;17.91;38.70;102830.97;5032740;28;20120;-71
2022/03/24 00:30:51;;;;;;;21.33;17.20;;;;;;;17.88;38.65;102828.00;5014785;28;20080;-71
2022/03/24 00:33:18;;;;;;;28.20;18.50;;;;;;;17.89;38.46;102832.38;5032748;28;20502;-84
2022/03/24 00:35:43;;;;;;;30.83;24.73;;;;;;;17.78;38.87;102828.25;5032702;28;20025;-71
2022/03/24 00:38:09;;;;;;;21.88;16.83;;;;;;;17.80;38.63;102829.56;5014517;28;20083;-71
2022/03/24 00:40:35;;;;;;;24.15;17.38;;;;;;;17.82;38.61;102829.22;5032346;28;20033;-71
2022/03/24 00:43:02;;;;;;;25.75;18.17;;;;;;;17.73;38.70;102835.50;5032516;28;20102;-71
2022/03/24 00:45:29;;;;;;;23.02;18.27;;;;;;;17.69;38.64;102834.47;5032717;28;20029;-71
2022/03/24 00:47:54;;;;;;;23.48;18.50;;;;;;;17.64;38.82;102837.34;5032287;28;20057;-71
2022/03/24 00:50:20;;;;;;;21.15;18.10;;;;;;;17.62;38.62;102831.31;5014676;28;20056;-71
2022/03/24 00:52:46;;;;;;;23.85;20.05;;;;;;;17.60;38.69;102830.78;5032464;28;20033;-71
2022/03/24 00:55:16;;;;;;;22.45;17.90;;;;;;;17.55;38.61;102835.63;5032304;28;20389;-71
2022/03/24 00:57:42;;;;;;;;;;;;;;;17.45;38.79;102837.47;5032747;28;20118;-71
2022/03/24 01:00:15;;;;;;;25.83;18.42;;;;;;;17.50;38.84;102839.31;5032557;28;19920;-71
2022/03/24 01:02:41;;;;;;;23.48;18.65;;;;;;;17.47;38.58;102831.66;5032611;28;20099;-71
2022/03/24 01:05:08;;;;;;;25.83;18.02;;;;;;;17.45;38.80;102834.69;5032570;28;20519;-71
2022/03/24 01:07:35;;;;;;;23.02;17.88;;;;;;;17.44;38.66;102837.78;5032258;28;20039;-71
2022/03/24 01:10:03;;;;;;;24.80;19.00;;;;;;;17.44;38.77;102827.53;5032581;28;20021;-80
2022/03/24 01:12:28;;;;;;;25.02;17.65;;;;;;;17.42;38.78;102835.31;5032255;28;20025;-71
2022/03/24 01:14:55;;;;;;;19.92;17.75;;;;;;;17.41;38.86;102835.63;5032425;28;20026;-71
2022/03/24 01:17:23;;;;;;;22.00;16.70;;;;;;;17.40;38.59;102828.47;5032535;28;20049;-71
2022/03/24 01:19:49;;;;;;;21.77;15.52;;;;;;;17.35;38.54;102823.06;5036384;28;20026;-72
2022/03/24 01:22:15;;;;;;;21.55;15.63;;;;;;;17.47;38.21;102824.16;5035947;28;20022;-71
2022/03/24 01:24:41;;;;;;;23.48;18.17;;;;;;;17.49;38.15;102826.63;5036120;28;20521;-71
2022/03/24 01:27:07;;;;;;;22.00;16.83;;;;;;;17.50;38.21;102824.69;5035953;28;20047;-71
2022/03/24 01:29:33;;;;;;;24.10;17.40;;;;;;;17.52;38.27;102819.66;5036134;28;20032;-72
2022/03/24 01:31:59;;;;;;;22.80;15.30;;;;;;;17.48;38.17;102825.00;5035555;28;20084;-71
2022/03/24 01:34:26;;;;;;;18.63;15.38;;;;;;;17.51;38.21;102818.81;5035987;28;20025;-74
2022/03/24 01:36:52;;;;;;;18.13;15.30;;;;;;;17.49;38.08;102821.09;5035928;28;20083;-71
2022/03/24 01:39:17;;;;;;;24.42;17.17;;;;;;;17.46;38.20;102818.97;5035796;28;20031;-72
2022/03/24 01:41:46;;;;;;;21.92;17.05;;;;;;;17.45;38.26;102822.81;5035823;28;20394;-71
2022/03/24 01:44:14;;;;;;;23.25;17.00;;;;;;;17.49;38.18;102818.31;5035845;28;20025;-72
2022/03/24 01:47:03;;;;;;;20.23;16.48;;;;;;;17.48;38.24;102812.00;5035914;28;20026;-71
2022/03/24 01:49:31;;;;;;;17.67;15.57;;;;;;;17.52;38.08;102809.41;5035697;28;20033;-72
2022/03/24 01:51:58;;;;;;;22.25;18.77;;;;;;;17.50;38.12;102808.91;5035415;28;20023;-70
2022/03/24 01:54:29;;;;;;;21.33;16.85;;;;;;;17.46;38.36;102810.66;5035492;28;20095;-71
2022/03/24 01:56:57;;;;;;;20.52;15.93;;;;;;;17.38;38.21;102809.44;5018047;28;20471;-71
2022/03/24 01:59:23;;;;;;;23.30;18.45;;;;;;;17.31;38.25;102811.00;5035167;28;20029;-71
2022/03/24 02:01:50;;;;;;;22.23;17.48;;;;;;;17.26;38.46;102811.91;5035695;28;20034;-82
2022/03/24 02:04:17;;;;;;;21.88;17.90;;;;;;;17.30;38.24;102809.34;5035351;28;20021;-89
2022/03/24 02:06:43;;;;;;;25.67;17.38;;;;;;;17.30;38.12;102810.16;5035396;28;20044;-88
2022/03/24 02:09:11;;;;;;;21.88;17.55;;;;;;;17.30;38.44;102812.09;5035334;28;20480;-71
2022/03/24 02:11:37;;;;;;;18.40;16.40;;;;;;;17.33;38.40;102809.56;5035059;28;20025;-81
2022/03/24 02:14:04;;;;;;;22.50;18.15;;;;;;;17.36;38.76;102808.09;5035316;28;20029;-71
2022/03/24 02:16:34;;;;;;;21.08;18.17;;;;;;;17.35;38.88;102810.06;5035138;28;20017;-70
2022/03/24 02:19:16;;;;;;;20.52;16.50;;;;;;;17.41;38.61;102805.25;5035146;28;20025;-71
2022/03/24 02:21:43;;;;;;;17.85;15.95;;;;;;;17.51;38.46;102807.78;5035260;28;20033;-71
2022/03/24 02:24:10;;;;;;;20.48;16.67;;;;;;;17.50;38.61;102811.66;5035367;28;20107;-71
2022/03/24 02:26:37;;;;;;;21.90;17.10;;;;;;;17.52;38.69;102801.13;5035226;28;20081;-79
2022/03/24 02:29:08;;;;;;;25.40;18.75;;;;;;;17.56;38.59;102796.63;5034736;28;20032;-71
2022/03/24 02:31:39;;;;;;;23.48;18.02;;;;;;;17.59;38.58;102809.00;5034639;28;20531;-85
2022/03/24 02:36:51;;;;;;;18.70;15.57;;;;;;;17.58;38.83;102797.13;5035122;28;20052;-71
2022/03/24 02:39:17;;;;;;;22.00;16.33;;;;;;;17.54;38.62;102798.06;5034568;28;20065;-71
2022/03/24 02:41:51;;;;;;;17.13;14.57;;;;;;;17.53;38.73;102799.16;5034776;28;20067;-71
2022/03/24 02:44:18;;;;;;;24.98;15.77;;;;;;;17.51;38.79;102805.00;5034577;28;20026;-71
2022/03/24 02:46:47;;;;;;;19.92;14.65;;;;;;;17.44;39.01;102801.84;5034564;28;20520;-71
2022/03/24 02:49:17;;;;;;;18.23;15.70;;;;;;;17.40;38.69;102803.59;5035057;28;20531;-72
2022/03/24 02:51:43;;;;;;;21.23;16.23;;;;;;;17.38;38.70;102801.16;5034373;28;20026;-71
2022/03/24 02:54:10;;;;;;;21.38;16.13;;;;;;;17.36;38.95;102795.09;5016918;28;20033;-77
2022/03/24 02:56:37;;;;;;;21.73;16.00;;;;;;;17.32;38.94;102799.63;5034500;28;20029;-71
2022/03/24 02:59:04;;;;;;;16.10;14.10;;;;;;;17.28;38.66;102800.53;5034857;28;20041;-71
2022/03/24 03:01:30;;;;;;;17.35;14.23;;;;;;;17.19;38.63;102800.44;5034487;28;20025;-71
2022/03/24 03:03:56;;;;;;;19.02;16.63;;;;;;;17.14;38.65;102798.59;5034610;28;20055;-71
2022/03/24 03:06:22;;;;;;;17.30;15.32;;;;;;;17.11;38.77;102796.47;5034463;28;20030;-89
2022/03/24 03:08:51;;;;;;;21.23;16.17;;;;;;;17.04;38.94;102798.81;5034946;28;20029;-71
2022/03/24 03:11:20;;;;;;;18.60;16.38;;;;;;;17.00;38.75;102794.22;5034606;28;20045;-82
2022/03/24 03:13:47;;;;;;;22.17;16.58;;;;;;;16.98;38.87;102794.53;5034357;28;20036;-71
2022/03/24 03:16:13;;;;;;;18.70;15.82;;;;;;;16.96;38.91;102790.44;5034145;28;20496;-90
2022/03/24 03:18:41;;;;;;;22.30;15.50;;;;;;;16.95;38.75;102791.56;5034276;28;20072;-71
2022/03/24 03:21:09;;;;;;;20.67;16.15;;;;;;;16.91;38.95;102786.63;5034294;28;20181;-71
2022/03/24 03:23:38;;;;;;;15.25;12.07;;;;;;;16.83;38.99;102790.13;5016584;28;20483;-71
2022/03/24 03:26:11;;;;;;;21.92;15.38;;;;;;;16.77;38.98;102787.75;5031599;28;20029;-72
2022/03/24 03:28:37;;;;;;;32.20;17.60;;;;;;;16.72;39.12;102787.88;5013797;28;20072;-71
2022/03/24 03:31:05;;;;;;;17.23;14.00;;;;;;;16.70;38.93;102790.09;5013886;28;20073;-73
2022/03/24 03:33:34;;;;;;;21.55;16.40;;;;;;;16.62;39.00;102789.69;4996499;28;20139;-71
2022/03/24 03:36:00;;;;;;;15.88;12.95;;;;;;;16.58;38.94;102790.56;5014060;28;20032;-71
2022/03/24 03:38:26;;;;;;;23.55;15.02;;;;;;;16.50;38.81;102777.47;5013978;28;20030;-71
2022/03/24 03:40:55;;;;;;;17.75;13.25;;;;;;;16.46;38.85;102779.19;4996184;28;20057;-71
2022/03/24 03:43:22;;;;;;;15.98;11.93;;;;;;;16.34;38.80;102774.19;5013817;28;20022;-71
2022/03/24 03:45:48;;;;;;;13.68;11.65;;;;;;;16.24;38.63;102777.09;5013670;28;20034;-71
2022/03/24 03:48:14;;;;;;;15.23;12.60;;;;;;;16.09;38.55;102775.41;5013656;28;20030;-87
2022/03/24 03:50:43;;;;;;;21.80;17.23;;;;;;;16.09;38.81;102780.94;5013544;28;20133;-71
2022/03/24 03:53:10;;;;;;;23.77;19.40;;;;;;;16.14;38.99;102769.81;5013764;28;20110;-79
2022/03/24 03:55:37;;;;;;;27.27;17.73;;;;;;;16.22;39.09;102782.09;5014023;28;20428;-71
2022/03/24 03:58:06;;;;;;;23.33;17.20;;;;;;;16.24;39.14;102782.59;5013854;28;20026;-71
2022/03/24 04:03:21;;;;;;;20.17;16.83;;;;;;;16.32;39.19;102776.41;5014150;28;20041;-75
2022/03/24 04:05:46;;;;;;;21.48;18.38;;;;;;;16.36;39.31;102774.69;5013461;28;20060;-71
2022/03/24 04:08:13;;;;;;;18.05;15.38;;;;;;;16.35;39.31;102779.38;5013577;28;20025;-71
2022/03/24 04:10:40;;;;;;;19.77;15.60;;;;;;;16.37;39.23;102773.56;5013441;28;20105;-73
2022/03/24 04:13:06;;;;;;;25.88;18.27;;;;;;;16.30;39.36;102776.72;5013488;28;20047;-90
2022/03/24 04:15:33;;;;;;;21.90;15.68;;;;;;;16.23;39.29;102772.69;5013412;28;20465;-72
2022/03/24 04:18:00;;;;;;;20.08;14.18;;;;;;;16.11;39.44;102778.72;5013354;28;20496;-76
2022/03/24 04:20:26;;;;;;;17.67;15.02;;;;;;;16.02;39.32;102774.97;5013115;28;20076;-71
2022/03/24 04:22:52;;;;;;;21.95;16.92;;;;;;;15.98;39.40;102777.53;5013599;28;20033;-91
2022/03/24 04:25:20;;;;;;;25.75;18.30;;;;;;;15.97;39.49;102773.13;5013590;28;20022;-71
2022/03/24 04:27:46;;;;;;;19.35;17.02;;;;;;;15.96;39.37;102771.50;4995874;28;20388;-71
2022/03/24 04:30:12;;;;;;;18.63;15.70;;;;;;;15.99;39.39;102775.59;5013113;28;20025;-71
2022/03/24 04:32:42;;;;;;;19.20;16.20;;;;;;;15.87;39.53;102778.81;5012350;28;20046;-73
2022/03/24 04:35:10;;;;;;;21.92;15.13;;;;;;;15.86;39.43;102782.66;5013155;28;20030;-71
2022/03/24 04:37:37;;;;;;;20.77;15.77;;;;;;;15.80;39.51;102781.94;5013088;28;20050;-71
2022/03/24 04:40:05;;;;;;;22.77;16.05;;;;;;;15.78;39.25;102780.59;5012656;28;20026;-71
2022/03/24 04:42:31;;;;;;;30.42;16.92;;;;;;;15.69;39.49;102785.97;4995497;28;20102;-71
2022/03/24 04:44:57;;;;;;;19.58;16.35;;;;;;;15.64;39.63;102786.06;5012844;28;20026;-71
2022/03/24 04:47:23;;;;;;;22.40;17.92;;;;;;;15.63;39.41;102781.63;5013344;28;20095;-88
2022/03/24 04:49:49;;;;;;;25.33;18.80;;;;;;;15.66;39.57;102783.00;5012789;28;20030;-74
2022/03/24 04:52:15;;;;;;;22.20;17.60;;;;;;;15.67;39.53;102784.63;5013558;28;20044;-71
2022/03/24 04:54:41;;;;;;;23.92;17.33;;;;;;;15.67;39.58;102784.63;5019682;28;20076;-71
2022/03/24 04:57:07;;;;;;;16.85;14.80;;;;;;;15.67;39.71;102784.63;5019293;28;20036;-71
2022/03/24 04:59:33;;;;;;;21.98;16.30;;;;;;;15.62;39.57;102788.25;5019309;28;20022;-71
2022/03/24 05:01:59;;;;;;;25.45;19.40;;;;;;;15.63;39.82;102789.09;5017980;28;20033;-71
2022/03/24 05:04:24;;;;;;;27.63;19.23;;;;;;;15.67;39.57;102784.63;5019242;28;20026;-71
2022/03/24 05:06:50;;;;;;;27.63;18.63;;;;;;;15.71;39.72;102782.91;5019222;28;20022;-71
2022/03/24 05:09:16;;;;;;;28.38;19.65;;;;;;;15.75;39.67;102787.53;5019256;28;20032;-71
2022/03/24 05:11:42;;;;;;;24.20;17.58;;;;;;;15.78;39.61;102778.66;5001434;28;20022;-71
2022/03/24 05:14:10;;;;;;;23.80;18.27;;;;;;;15.71;39.76;102788.41;5019014;28;20037;-71
2022/03/24 05:16:36;;;;;;;25.33;17.70;;;;;;;15.72;39.77;102781.81;5018533;28;20103;-72
2022/03/24 05:19:03;;;;;;;24.88;17.58;;;;;;;15.70;39.56;102784.03;5018687;28;20508;-71
2022/03/24 05:21:31;;;;;;;22.70;17.55;;;;;;;15.71;39.69;102780.16;5017889;28;20030;-71
2022/03/24 05:23:57;;;;;;;25.77;20.20;;;;;;;15.71;39.78;102788.41;5019625;28;20484;-71
2022/03/24 05:26:23;;;;;;;32.10;21.27;;;;;;;15.73;39.81;102786.19;5001597;28;20064;-71
2022/03/24 05:28:49;;;;;;;26.30;18.35;;;;;;;15.74;39.98;102791.41;5019253;28;20033;-71
2022/03/24 05:31:16;;;;;;;25.33;18.23;;;;;;;15.76;39.83;102788.34;5018841;28;20064;-90
2022/03/24 05:33:42;;;;;;;29.50;18.45;;;;;;;15.69;39.85;102785.97;5005387;28;20030;-70
2022/03/24 05:36:08;;;;;;;26.10;20.08;;;;;;;15.63;40.09;102789.09;5038095;28;20466;-70
2022/03/24 05:38:34;;;;;;;30.23;20.20;;;;;;;15.65;40.02;102787.69;5038573;28;20065;-78
2022/03/24 05:41:00;;;;;;;28.83;21.05;;;;;;;15.68;40.06;102789.84;5037807;28;20104;-70
2022/03/24 05:43:26;;;;;;;31.30;19.85;;;;;;;15.72;39.91;102792.84;5038363;28;20033;-70
2022/03/24 05:45:51;;;;;;;30.35;19.63;;;;;;;15.73;40.02;102794.47;5038289;28;20029;-71
2022/03/24 05:48:17;;;;;;;36.17;19.13;;;;;;;15.66;40.10;102791.25;5038258;28;20036;-71
2022/03/24 05:50:44;;;;;;;30.00;19.48;;;;;;;15.71;40.08;102797.50;5038510;28;20083;-69
2022/03/24 05:53:09;;;;;;;27.50;16.98;;;;;;;15.75;40.00;102792.22;5038193;28;20112;-70
2022/03/24 05:55:36;;;;;;;27.42;17.45;;;;;;;15.64;40.36;102805.34;5038613;28;20056;-70
2022/03/24 05:58:02;;;;;;;24.42;18.15;;;;;;;15.65;40.24;102798.72;5038570;28;20033;-71
2022/03/24 06:00:28;;;;;;;30.60;18.80;;;;;;;15.61;40.16;102800.41;5038353;28;20464;-71
2022/03/24 06:02:56;;;;;;;23.80;17.67;;;;;;;15.54;40.13;102800.75;5038434;28;20044;-71
2022/03/24 06:05:25;;;;;;;32.30;19.13;;;;;;;15.54;40.22;102805.44;5034133;28;20060;-88
2022/03/24 06:07:51;;;;;;;24.02;17.63;;;;;;;15.47;40.12;102800.28;5035037;28;20037;-71
2022/03/24 06:10:17;;;;;;;26.92;19.25;;;;;;;15.39;40.16;102811.97;5035140;28;20384;-70
2022/03/24 06:12:42;;;;;;;26.58;18.20;;;;;;;15.27;40.54;102806.91;5035128;28;20030;-71
2022/03/24 06:15:08;;;;;;;25.70;19.08;;;;;;;15.34;40.27;102808.44;5034995;28;20026;-71
2022/03/24 06:17:35;;;;;;;31.50;18.98;;;;;;;15.32;40.34;102794.97;5034859;28;20031;-71
2022/03/24 06:20:02;;;;;;;38.22;20.50;;;;;;;15.32;40.64;102788.66;5035231;28;20025;-71
2022/03/24 06:22:28;;;;;;;25.48;20.52;;;;;;;15.36;40.62;102786.97;5034919;28;20040;-71
2022/03/24 06:24:54;;;;;;;28.15;18.63;;;;;;;15.33;40.84;102796.63;5034885;28;20025;-70
2022/03/24 06:27:20;;;;;;;29.10;19.92;;;;;;;15.36;40.83;102800.75;5034699;28;20025;-71
2022/03/24 06:29:47;;;;;;;30.52;19.67;;;;;;;15.42;40.79;102800.38;5034607;28;20036;-70
2022/03/24 06:32:13;;;;;;;26.52;20.10;;;;;;;15.40;40.85;102797.06;5013398;28;20069;-70
2022/03/24 06:34:39;;;;;;;29.48;20.60;;;;;;;15.36;40.89;102795.22;5014674;28;20105;-70
2022/03/24 06:37:05;;;;;;;28.80;19.15;;;;;;;15.40;40.59;102797.06;5015100;28;20053;-70
2022/03/24 06:39:31;;;;;;;22.75;18.67;;;;;;;15.26;41.02;102797.00;5014758;28;20025;-70
2022/03/24 06:41:56;;;;;;;21.48;17.13;;;;;;;15.34;40.48;102808.44;5015179;28;20022;-71
2022/03/24 06:44:22;;;;;;;22.30;16.85;;;;;;;15.35;40.64;102802.66;5013213;28;20022;-70
2022/03/24 06:46:48;;;;;;;34.10;19.45;;;;;;;15.32;40.69;102805.19;5014627;28;20076;-82
2022/03/24 06:49:15;;;;;;;29.35;18.23;;;;;;;15.31;40.70;102809.88;5014539;28;20430;-70
2022/03/24 06:51:40;;;;;;;28.63;19.20;;;;;;;15.33;40.49;102812.31;5014974;28;20025;-89
2022/03/24 06:54:06;;;;;;;25.48;16.25;;;;;;;15.30;40.58;102816.50;5014791;28;20388;-71
2022/03/24 06:56:31;;;;;;;31.00;17.55;;;;;;;15.31;40.56;102814.56;5014434;28;20032;-71
2022/03/24 06:58:57;;;;;;;23.48;16.58;;;;;;;15.35;40.48;102815.63;5014780;28;20033;-71
2022/03/24 07:01:22;;;;;;;22.63;17.02;;;;;;;15.34;40.32;102814.81;5014292;28;20093;-70
2022/03/24 07:03:48;;;;;;;26.77;19.65;;;;;;;15.34;40.80;102814.81;5014592;28;20120;-79
2022/03/24 07:06:14;;;;;;;35.58;21.65;;;;;;;15.33;41.05;102820.59;5014499;28;20384;-71
2022/03/24 07:08:39;;;;;;;29.13;19.90;;;;;;;15.44;40.85;102824.88;5014618;28;20395;-71
2022/03/24 07:11:06;;;;;;;29.08;20.40;;;;;;;15.52;40.77;102822.28;5014191;28;20062;-73
2022/03/24 07:13:32;;;;;;;27.38;19.55;;;;;;;15.53;40.77;102823.91;5014768;28;20440;-70
2022/03/24 07:15:58;;;;;;;27.80;18.58;;;;;;;15.62;40.59;102828.78;5014856;28;20034;-91
2022/03/24 07:18:23;;;;;;;28.95;19.52;;;;;;;15.65;40.82;102825.44;5015589;28;20063;-78
2022/03/24 07:20:50;;;;;;;32.20;19.90;;;;;;;15.72;41.08;102828.66;5013605;28;20026;-71
2022/03/24 07:23:16;;;;;;;28.20;20.88;;;;;;;15.80;41.07;102826.06;5013953;28;20057;-71
2022/03/24 07:25:42;;;;;;;31.02;21.60;;;;;;;15.89;41.30;102831.72;5013868;28;20022;-70
2022/03/24 07:28:10;;;;;;;31.40;23.00;;;;;;;15.95;41.26;102827.78;5013593;28;20464;-90
2022/03/24 07:30:36;;;;;;;27.90;22.02;;;;;;;16.01;40.97;102822.97;5013847;28;20042;-70
2022/03/24 07:33:02;;;;;;;33.90;22.55;;;;;;;15.99;41.50;102831.56;5033097;28;20179;-71
2022/03/24 07:35:30;;;;;;;33.30;22.75;;;;;;;16.11;41.79;102827.53;5033099;28;20033;-72
2022/03/24 07:37:56;;;;;;;30.88;21.67;;;;;;;16.12;41.67;102837.44;5032840;28;20171;-83
2022/03/24 07:40:22;;;;;;;29.85;21.63;;;;;;;16.24;41.42;102846.06;5034180;28;20056;-70
2022/03/24 07:42:53;;;;;;;31.35;21.20;;;;;;;16.22;41.80;102842.78;5015854;28;20025;-71
2022/03/24 07:45:20;;;;;;;29.23;21.83;;;;;;;16.45;41.60;102844.59;5033860;28;20040;-71
2022/03/24 07:48:08;;;;;;;33.65;21.80;;;;;;;16.58;42.07;102843.81;5030958;28;20044;-71
2022/03/24 07:50:38;;;;;;;30.27;20.80;;;;;;;16.72;41.94;102848.59;5031523;28;20041;-71
2022/03/24 07:53:16;;;;;;;;;;;;;;;16.87;42.59;102849.13;5033519;28;20083;-71
2022/03/24 07:55:44;;;;;;;27.92;19.20;;;;;;;17.15;42.00;102843.63;5033338;28;19939;-71
2022/03/24 07:58:11;;;;;;;28.65;21.38;;;;;;;17.37;41.63;102845.66;5027975;28;21521;-72
2022/03/24 08:00:37;;;;;;;28.15;20.35;;;;;;;17.59;41.92;102851.25;5017969;28;21463;-71
2022/03/24 08:03:06;;;;;;;29.63;20.08;;;;;;;17.76;42.12;102856.22;5017478;28;20512;-72
2022/03/24 08:05:32;;;;;;;27.60;20.20;;;;;;;17.88;42.29;102848.16;5018634;28;20033;-72
2022/03/24 08:07:58;;;;;;;37.17;20.85;;;;;;;18.08;42.40;102854.38;5017969;28;20030;-72
2022/03/24 08:10:24;;;;;;;32.92;20.40;;;;;;;18.20;42.43;102852.66;5018150;28;20396;-71
2022/03/24 08:12:50;;;;;;;37.97;21.35;;;;;;;18.32;42.49;102854.06;5033313;28;20032;-69
2022/03/24 08:15:15;;;;;;;28.17;19.08;;;;;;;18.37;42.64;102853.94;5035718;28;20559;-87
2022/03/24 08:17:42;;;;;;;33.22;19.42;;;;;;;18.60;42.58;102846.44;5033948;28;20059;-70
2022/03/24 08:20:08;;;;;;;35.20;19.77;;;;;;;18.83;42.40;102839.75;5020306;28;20009;-72
2022/03/24 08:22:33;;;;;;;38.50;19.20;;;;;;;18.95;42.46;102847.44;5015107;28;20029;-69
2022/03/24 08:24:59;;;;;;;24.95;17.90;;;;;;;19.09;42.33;102853.72;5034908;28;20027;-69
2022/03/24 08:27:25;;;;;;;24.25;18.52;;;;;;;19.25;41.96;102857.69;5030498;28;20021;-69
2022/03/24 08:29:52;;;;;;;27.70;16.65;;;;;;;19.31;41.74;102853.63;5030842;28;20105;-69
2022/03/24 08:32:18;;;;;;;25.70;17.35;;;;;;;19.32;41.66;102858.03;5013389;28;20076;-69
2022/03/24 08:34:43;;;;;;;34.22;17.05;;;;;;;19.43;41.46;102852.22;5030585;28;20057;-69
2022/03/24 08:37:09;;;;;;;28.77;17.20;;;;;;;19.52;41.59;102859.41;5031386;28;20025;-68
2022/03/24 08:39:35;;;;;;;24.55;16.52;;;;;;;19.63;41.21;102851.59;5031814;28;20080;-88
2022/03/24 08:42:00;;;;;;;26.00;17.35;;;;;;;19.73;41.05;102856.03;5014781;28;20029;-69
2022/03/24 08:44:26;;;;;;;29.20;20.20;;;;;;;19.88;40.62;102864.72;5032924;28;20502;-69
2022/03/24 08:46:52;;;;;;;38.67;18.58;;;;;;;19.97;40.88;102863.91;5032932;28;20048;-69
2022/03/24 08:49:18;;;;;;;36.35;16.88;;;;;;;20.09;40.38;102869.59;5032687;28;20525;-69
2022/03/24 08:51:45;;;;;;;27.52;16.60;;;;;;;20.11;40.54;102865.38;5032579;28;20025;-69
2022/03/24 08:54:10;;;;;;;37.78;19.10;;;;;;;20.27;40.38;102868.47;5030926;28;20033;-69
2022/03/24 08:56:36;;;;;;;46.42;19.40;;;;;;;20.37;40.24;102865.34;5032599;28;20025;-69
2022/03/24 08:59:02;;;;;;;26.95;16.60;;;;;;;20.46;40.16;102876.47;5032540;28;20448;-69
2022/03/24 09:01:28;;;;;;;19.17;15.10;;;;;;;20.69;39.77;102872.31;5032489;28;20021;-69
2022/03/24 09:03:54;;;;;;;24.80;16.25;;;;;;;20.91;39.60;102868.50;5032715;28;20387;-69
2022/03/24 09:06:21;;;;;;;22.38;14.00;;;;;;;21.16;39.41;102874.28;5032668;28;20021;-68
2022/03/24 09:08:47;;;;;;;20.30;13.85;;;;;;;21.29;39.42;102876.88;5032461;28;20087;-88
2022/03/24 09:11:13;;;;;;;21.13;14.85;;;;;;;21.44;39.46;102881.06;5032717;28;20022;-69
2022/03/24 09:13:39;;;;;;;24.20;16.35;;;;;;;21.38;39.26;102879.63;5032290;28;20075;-69
2022/03/24 09:16:06;;;;;;;20.70;13.35;;;;;;;21.60;39.12;102884.88;5032193;28;20022;-69
2022/03/24 09:18:32;;;;;;;19.75;13.20;;;;;;;21.82;38.70;102885.72;5032365;28;20018;-69
2022/03/24 09:20:58;;;;;;;57.47;18.48;;;;;;;21.85;38.43;102880.31;5031932;28;20474;-69
2022/03/24 09:23:26;;;;;;;30.67;14.57;;;;;;;22.18;37.44;102881.56;5031235;28;20025;-69
2022/03/24 09:25:53;;;;;;;27.02;14.80;;;;;;;22.00;37.33;102878.91;5013018;28;20427;-69
2022/03/24 09:28:19;;;;;;;19.20;12.65;;;;;;;22.51;36.22;102879.59;5012582;28;20042;-69
2022/03/24 09:30:45;;;;;;;20.10;13.00;;;;;;;22.20;36.67;102884.81;5012276;28;20476;-69
2022/03/24 09:33:12;;;;;;;39.80;16.50;;;;;;;22.21;36.78;102881.69;5012723;28;20022;-69
2022/03/24 09:35:38;;;;;;;23.67;14.00;;;;;;;22.65;36.07;102882.91;5012360;28;20030;-69
2022/03/24 09:38:03;;;;;;;17.52;12.93;;;;;;;22.72;36.07;102882.34;5012496;28;20033;-69
2022/03/24 09:40:29;;;;;;;16.75;13.15;;;;;;;22.83;35.67;102880.75;5015938;28;20041;-69
2022/03/24 09:42:57;;;;;;;21.02;13.40;;;;;;;22.60;35.84;102885.09;5016114;28;20033;-88
2022/03/24 09:45:25;;;;;;;19.52;12.13;;;;;;;22.42;36.46;102887.22;5016145;28;20118;-68
2022/03/24 09:47:50;;;;;;;16.63;13.30;;;;;;;22.40;36.50;102886.78;4998365;28;20113;-68
2022/03/24 09:50:18;;;;;;;30.80;14.57;;;;;;;22.44;36.63;102882.13;5016324;28;20116;-68
2022/03/24 09:52:43;;;;;;;22.83;13.27;;;;;;;22.47;36.24;102873.09;5015885;28;20022;-68
2022/03/24 09:55:10;;;;;;;22.85;13.48;;;;;;;22.38;36.52;102889.09;5032753;28;20030;-68
2022/03/24 09:57:36;;;;;;;22.85;14.10;;;;;;;22.51;36.46;102885.16;5035585;28;20036;-67
2022/03/24 10:00:03;;;;;;;23.98;13.48;;;;;;;22.68;36.21;102884.19;5035411;28;20036;-68
2022/03/24 10:02:29;;;;;;;19.45;12.32;;;;;;;22.70;36.07;102888.25;5035411;28;20485;-68
2022/03/24 10:05:01;;;;;;;21.35;13.55;;;;;;;22.64;36.02;102889.63;5035517;28;20468;-68
2022/03/24 10:07:29;;;;;;;22.25;13.15;;;;;;;22.81;36.25;102885.03;5035324;28;20610;-88
2022/03/24 10:09:56;;;;;;;22.17;13.63;;;;;;;22.92;36.16;102891.81;5017621;28;20025;-69
2022/03/24 10:12:21;;;;;;;30.95;15.23;;;;;;;22.93;36.13;102885.91;5032424;28;20083;-70
2022/03/24 10:15:04;;;;;;;23.63;11.43;;;;;;;23.02;36.17;102887.78;5036819;28;20021;-69
2022/03/24 10:17:30;;;;;;;26.58;13.32;;;;;;;23.11;36.12;102880.91;5038783;28;20029;-69
2022/03/24 10:19:58;;;;;;;23.75;11.93;;;;;;;23.23;35.64;102880.94;5039644;28;20021;-70
2022/03/24 10:22:24;;;;;;;17.55;12.23;;;;;;;23.17;35.98;102895.44;5036349;28;21089;-70
2022/03/24 10:24:50;;;;;;;31.52;13.50;;;;;;;23.36;35.65;102887.34;5019388;28;20688;-70
2022/03/24 10:27:28;;;;;;;16.35;12.82;;;;;;;23.61;34.97;102888.16;5023377;28;20033;-69
2022/03/24 10:29:56;;;;;;;21.58;12.73;;;;;;;23.78;34.83;102887.06;5035412;28;20039;-70
2022/03/24 10:32:27;;;;;;;18.30;12.23;;;;;;;23.92;34.57;102883.91;5034956;28;20407;-69
2022/03/24 10:34:57;;;;;;;19.17;11.75;;;;;;;23.96;34.53;102890.44;5017355;28;20547;-90
2022/03/24 10:37:25;;;;;;;23.60;12.48;;;;;;;24.10;34.70;102890.81;5034941;28;20029;-69
2022/03/24 10:40:13;;;;;;;18.00;11.98;;;;;;;24.13;34.07;102881.75;5034897;28;20083;-69
2022/03/24 10:42:40;;;;;;;25.63;12.30;;;;;;;24.28;33.91;102880.19;5035385;28;20029;-69
2022/03/24 10:45:09;;;;;;;18.63;11.90;;;;;;;24.72;33.40;102891.41;5035188;28;20124;-70
2022/03/24 10:47:51;;;;;;;15.63;10.77;;;;;;;24.70;32.92;102886.16;5034745;28;20033;-69
2022/03/24 10:50:26;;;;;;;16.48;10.73;;;;;;;24.90;32.93;102881.50;5034088;28;20039;-70
2022/03/24 10:52:53;;;;;;;16.58;11.40;;;;;;;24.86;33.29;102886.19;5034772;28;20029;-69
2022/03/24 10:55:44;;;;;;;15.82;10.95;;;;;;;24.74;33.44;102886.28;5034561;28;20129;-69
2022/03/24 10:58:32;;;;;;;19.90;12.30;;;;;;;24.68;33.24;102884.91;5035094;28;20037;-69
2022/03/24 11:01:00;;;;;;;15.57;11.00;;;;;;;24.43;34.24;102896.22;5020142;28;20041;-71
2022/03/24 11:03:26;;;;;;;30.48;11.82;;;;;;;24.47;34.04;102890.72;5000374;28;20478;-69
2022/03/24 11:06:03;;;;;;;14.85;9.63;;;;;;;24.63;34.16;102889.56;5021772;28;20031;-70
2022/03/24 11:08:29;;;;;;;19.88;11.05;;;;;;;24.67;34.10;102889.69;5018830;28;20123;-69
2022/03/24 11:10:54;;;;;;;16.50;10.43;;;;;;;24.62;33.93;102887.16;5018442;28;20637;-71
2022/03/24 11:13:40;;;;;;;30.15;12.63;;;;;;;24.67;33.78;102884.09;5025613;28;20542;-69
2022/03/24 11:16:08;;;;;;;24.23;11.18;;;;;;;24.72;33.83;102894.22;5046646;28;20036;-69